sensor_id;sensor_type;location;lat;lon;timestamp;P1;durP1;ratioP1;P2;durP2;ratioP2
19554;SDS011;9924;50.828;6.440;2023-07-08T00:00:19;8.27;;;5.10;;
19554;SDS011;9924;50.828;6.440;2023-07-08T00:02:46;9.23;;;5.28;;
19554;SDS011;9924;50.828;6.440;2023-07-08T00:05:13;9.52;;;5.35;;
19554;SDS011;9924;50.828;6.440;2023-07-08T00:07:41;9.13;;;5.88;;
19554;SDS011;9924;50.828;6.440;2023-07-08T00:10:15;7.93;;;5.03;;
19554;SDS011;9924;50.828;6.440;2023-07-08T00:12:47;8.25;;;5.60;;
19554;SDS011;9924;50.828;6.440;2023-07-08T00:15:14;8.93;;;4.95;;
19554;SDS011;9924;50.828;6.440;2023-07-08T00:17:41;9.27;;;5.00;;
19554;SDS011;9924;50.828;6.440;2023-07-08T00:20:14;8.60;;;5.40;;
19554;SDS011;9924;50.828;6.440;2023-07-08T00:22:48;10.05;;;5.50;;
19554;SDS011;9924;50.828;6.440;2023-07-08T00:25:17;9.57;;;5.22;;
19554;SDS011;9924;50.828;6.440;2023-07-08T00:27:45;9.93;;;5.40;;
19554;SDS011;9924;50.828;6.440;2023-07-08T00:32:51;8.52;;;4.97;;
19554;SDS011;9924;50.828;6.440;2023-07-08T00:37:57;13.82;;;5.10;;
19554;SDS011;9924;50.828;6.440;2023-07-08T00:40:27;7.72;;;5.28;;
19554;SDS011;9924;50.828;6.440;2023-07-08T00:43:01;8.38;;;5.45;;
19554;SDS011;9924;50.828;6.440;2023-07-08T00:45:37;10.68;;;5.22;;
19554;SDS011;9924;50.828;6.440;2023-07-08T00:48:08;8.15;;;5.50;;
19554;SDS011;9924;50.828;6.440;2023-07-08T00:50:50;10.40;;;6.13;;
19554;SDS011;9924;50.828;6.440;2023-07-08T00:55:54;8.98;;;5.70;;
19554;SDS011;9924;50.828;6.440;2023-07-08T01:01:41;8.60;;;5.30;;
19554;SDS011;9924;50.828;6.440;2023-07-08T01:04:20;10.48;;;5.78;;
19554;SDS011;9924;50.828;6.440;2023-07-08T01:06:53;11.52;;;6.32;;
19554;SDS011;9924;50.828;6.440;2023-07-08T01:09:26;9.18;;;5.38;;
19554;SDS011;9924;50.828;6.440;2023-07-08T01:11:57;8.98;;;4.78;;
19554;SDS011;9924;50.828;6.440;2023-07-08T01:14:27;9.20;;;5.72;;
19554;SDS011;9924;50.828;6.440;2023-07-08T01:16:56;10.77;;;6.15;;
19554;SDS011;9924;50.828;6.440;2023-07-08T01:19:23;8.93;;;5.82;;
19554;SDS011;9924;50.828;6.440;2023-07-08T01:22:02;10.10;;;5.82;;
19554;SDS011;9924;50.828;6.440;2023-07-08T01:24:29;10.77;;;5.70;;
19554;SDS011;9924;50.828;6.440;2023-07-08T01:26:57;12.65;;;5.78;;
19554;SDS011;9924;50.828;6.440;2023-07-08T01:29:23;9.55;;;5.90;;
19554;SDS011;9924;50.828;6.440;2023-07-08T01:31:49;10.23;;;6.07;;
19554;SDS011;9924;50.828;6.440;2023-07-08T01:34:15;12.38;;;6.95;;
19554;SDS011;9924;50.828;6.440;2023-07-08T01:36:44;10.32;;;6.95;;
19554;SDS011;9924;50.828;6.440;2023-07-08T01:39:18;16.27;;;8.38;;
19554;SDS011;9924;50.828;6.440;2023-07-08T01:41:45;15.10;;;8.05;;
19554;SDS011;9924;50.828;6.440;2023-07-08T01:46:48;15.45;;;9.10;;
19554;SDS011;9924;50.828;6.440;2023-07-08T01:49:15;17.10;;;8.48;;
19554;SDS011;9924;50.828;6.440;2023-07-08T01:51:41;17.23;;;7.70;;
19554;SDS011;9924;50.828;6.440;2023-07-08T01:54:07;12.65;;;6.90;;
19554;SDS011;9924;50.828;6.440;2023-07-08T01:56:33;13.45;;;7.75;;
19554;SDS011;9924;50.828;6.440;2023-07-08T01:58:59;14.82;;;7.45;;
19554;SDS011;9924;50.828;6.440;2023-07-08T02:01:25;16.63;;;8.25;;
19554;SDS011;9924;50.828;6.440;2023-07-08T02:03:51;15.68;;;8.18;;
19554;SDS011;9924;50.828;6.440;2023-07-08T02:06:17;14.13;;;7.75;;
19554;SDS011;9924;50.828;6.440;2023-07-08T02:08:44;13.43;;;7.70;;
19554;SDS011;9924;50.828;6.440;2023-07-08T02:11:10;11.82;;;7.20;;
19554;SDS011;9924;50.828;6.440;2023-07-08T02:13:35;12.70;;;7.28;;
19554;SDS011;9924;50.828;6.440;2023-07-08T02:16:01;11.07;;;6.25;;
19554;SDS011;9924;50.828;6.440;2023-07-08T02:18:27;9.88;;;7.13;;
19554;SDS011;9924;50.828;6.440;2023-07-08T02:20:57;14.23;;;7.80;;
19554;SDS011;9924;50.828;6.440;2023-07-08T02:23:24;12.82;;;6.72;;
19554;SDS011;9924;50.828;6.440;2023-07-08T02:25:53;15.23;;;7.05;;
19554;SDS011;9924;50.828;6.440;2023-07-08T02:28:20;14.73;;;7.25;;
19554;SDS011;9924;50.828;6.440;2023-07-08T02:30:46;13.13;;;7.35;;
19554;SDS011;9924;50.828;6.440;2023-07-08T02:33:13;12.50;;;7.80;;
19554;SDS011;9924;50.828;6.440;2023-07-08T02:35:39;12.75;;;7.68;;
19554;SDS011;9924;50.828;6.440;2023-07-08T02:38:05;11.85;;;7.45;;
19554;SDS011;9924;50.828;6.440;2023-07-08T02:40:31;13.80;;;7.10;;
19554;SDS011;9924;50.828;6.440;2023-07-08T02:42:57;12.52;;;7.53;;
19554;SDS011;9924;50.828;6.440;2023-07-08T02:45:22;12.07;;;7.68;;
19554;SDS011;9924;50.828;6.440;2023-07-08T02:47:48;13.73;;;7.75;;
19554;SDS011;9924;50.828;6.440;2023-07-08T02:50:14;13.52;;;7.45;;
19554;SDS011;9924;50.828;6.440;2023-07-08T02:52:42;14.05;;;7.30;;
19554;SDS011;9924;50.828;6.440;2023-07-08T02:55:08;11.85;;;7.55;;
19554;SDS011;9924;50.828;6.440;2023-07-08T02:57:34;16.05;;;7.28;;
19554;SDS011;9924;50.828;6.440;2023-07-08T02:59:59;11.52;;;7.10;;
19554;SDS011;9924;50.828;6.440;2023-07-08T03:02:26;11.18;;;6.47;;
19554;SDS011;9924;50.828;6.440;2023-07-08T03:04:52;12.20;;;6.35;;
19554;SDS011;9924;50.828;6.440;2023-07-08T03:07:19;10.10;;;6.35;;
19554;SDS011;9924;50.828;6.440;2023-07-08T03:09:45;9.85;;;6.38;;
19554;SDS011;9924;50.828;6.440;2023-07-08T03:12:11;9.82;;;6.38;;
19554;SDS011;9924;50.828;6.440;2023-07-08T03:14:37;10.10;;;6.22;;
19554;SDS011;9924;50.828;6.440;2023-07-08T03:17:03;10.63;;;6.18;;
19554;SDS011;9924;50.828;6.440;2023-07-08T03:19:29;9.85;;;6.22;;
19554;SDS011;9924;50.828;6.440;2023-07-08T03:21:55;9.13;;;6.05;;
19554;SDS011;9924;50.828;6.440;2023-07-08T03:24:21;10.00;;;6.03;;
19554;SDS011;9924;50.828;6.440;2023-07-08T03:26:47;10.25;;;6.53;;
19554;SDS011;9924;50.828;6.440;2023-07-08T03:29:16;8.82;;;5.60;;
19554;SDS011;9924;50.828;6.440;2023-07-08T03:31:43;11.13;;;6.63;;
19554;SDS011;9924;50.828;6.440;2023-07-08T03:34:10;10.23;;;6.20;;
19554;SDS011;9924;50.828;6.440;2023-07-08T03:36:46;10.02;;;6.43;;
19554;SDS011;9924;50.828;6.440;2023-07-08T03:39:16;8.98;;;6.20;;
19554;SDS011;9924;50.828;6.440;2023-07-08T03:41:43;12.77;;;6.35;;
19554;SDS011;9924;50.828;6.440;2023-07-08T03:44:09;10.43;;;6.72;;
19554;SDS011;9924;50.828;6.440;2023-07-08T03:46:36;10.77;;;6.47;;
19554;SDS011;9924;50.828;6.440;2023-07-08T03:49:02;9.57;;;6.53;;
19554;SDS011;9924;50.828;6.440;2023-07-08T03:51:32;11.00;;;6.43;;
19554;SDS011;9924;50.828;6.440;2023-07-08T03:54:00;10.95;;;6.13;;
19554;SDS011;9924;50.828;6.440;2023-07-08T03:56:26;12.10;;;6.32;;
19554;SDS011;9924;50.828;6.440;2023-07-08T03:58:52;11.15;;;6.40;;
19554;SDS011;9924;50.828;6.440;2023-07-08T04:01:19;11.20;;;6.53;;
19554;SDS011;9924;50.828;6.440;2023-07-08T04:03:46;10.23;;;6.60;;
19554;SDS011;9924;50.828;6.440;2023-07-08T04:06:13;11.20;;;6.78;;
19554;SDS011;9924;50.828;6.440;2023-07-08T04:08:39;12.15;;;6.50;;
19554;SDS011;9924;50.828;6.440;2023-07-08T04:11:05;12.30;;;6.68;;
19554;SDS011;9924;50.828;6.440;2023-07-08T04:13:31;9.15;;;6.13;;
19554;SDS011;9924;50.828;6.440;2023-07-08T04:16:01;10.23;;;6.82;;
19554;SDS011;9924;50.828;6.440;2023-07-08T04:18:29;11.25;;;6.70;;
19554;SDS011;9924;50.828;6.440;2023-07-08T04:20:55;10.73;;;6.53;;
19554;SDS011;9924;50.828;6.440;2023-07-08T04:23:21;10.13;;;6.70;;
19554;SDS011;9924;50.828;6.440;2023-07-08T04:25:48;12.68;;;6.97;;
19554;SDS011;9924;50.828;6.440;2023-07-08T04:28:14;12.63;;;6.65;;
19554;SDS011;9924;50.828;6.440;2023-07-08T04:30:41;12.07;;;6.50;;
19554;SDS011;9924;50.828;6.440;2023-07-08T04:33:08;13.55;;;6.80;;
19554;SDS011;9924;50.828;6.440;2023-07-08T04:35:35;11.10;;;6.72;;
19554;SDS011;9924;50.828;6.440;2023-07-08T04:38:04;13.13;;;7.00;;
19554;SDS011;9924;50.828;6.440;2023-07-08T04:40:35;12.40;;;7.30;;
19554;SDS011;9924;50.828;6.440;2023-07-08T04:43:05;13.05;;;7.47;;
19554;SDS011;9924;50.828;6.440;2023-07-08T04:45:36;10.80;;;6.55;;
19554;SDS011;9924;50.828;6.440;2023-07-08T04:48:03;11.55;;;7.13;;
19554;SDS011;9924;50.828;6.440;2023-07-08T04:50:43;12.77;;;7.18;;
19554;SDS011;9924;50.828;6.440;2023-07-08T04:53:10;10.93;;;6.63;;
19554;SDS011;9924;50.828;6.440;2023-07-08T04:55:43;9.80;;;6.47;;
19554;SDS011;9924;50.828;6.440;2023-07-08T04:58:13;11.88;;;7.22;;
19554;SDS011;9924;50.828;6.440;2023-07-08T05:00:39;10.40;;;6.68;;
19554;SDS011;9924;50.828;6.440;2023-07-08T05:03:04;12.23;;;7.40;;
19554;SDS011;9924;50.828;6.440;2023-07-08T05:05:30;12.95;;;7.45;;
19554;SDS011;9924;50.828;6.440;2023-07-08T05:07:56;10.38;;;6.30;;
19554;SDS011;9924;50.828;6.440;2023-07-08T05:10:22;15.05;;;7.30;;
19554;SDS011;9924;50.828;6.440;2023-07-08T05:12:47;14.27;;;7.30;;
19554;SDS011;9924;50.828;6.440;2023-07-08T05:15:13;12.50;;;6.68;;
19554;SDS011;9924;50.828;6.440;2023-07-08T05:17:40;11.40;;;7.13;;
19554;SDS011;9924;50.828;6.440;2023-07-08T05:20:07;12.70;;;7.35;;
19554;SDS011;9924;50.828;6.440;2023-07-08T05:22:34;11.45;;;7.47;;
19554;SDS011;9924;50.828;6.440;2023-07-08T05:25:00;10.63;;;7.20;;
19554;SDS011;9924;50.828;6.440;2023-07-08T05:27:26;12.98;;;7.43;;
19554;SDS011;9924;50.828;6.440;2023-07-08T05:29:53;14.38;;;7.88;;
19554;SDS011;9924;50.828;6.440;2023-07-08T05:32:19;12.23;;;7.35;;
19554;SDS011;9924;50.828;6.440;2023-07-08T05:34:45;12.35;;;7.50;;
19554;SDS011;9924;50.828;6.440;2023-07-08T05:37:12;10.20;;;6.97;;
19554;SDS011;9924;50.828;6.440;2023-07-08T05:39:38;13.77;;;7.88;;
19554;SDS011;9924;50.828;6.440;2023-07-08T05:42:05;11.20;;;6.75;;
19554;SDS011;9924;50.828;6.440;2023-07-08T05:44:31;15.45;;;7.55;;
19554;SDS011;9924;50.828;6.440;2023-07-08T05:46:57;13.43;;;7.47;;
19554;SDS011;9924;50.828;6.440;2023-07-08T05:49:22;11.00;;;7.57;;
19554;SDS011;9924;50.828;6.440;2023-07-08T05:51:48;14.75;;;7.80;;
19554;SDS011;9924;50.828;6.440;2023-07-08T05:54:14;11.25;;;7.97;;
19554;SDS011;9924;50.828;6.440;2023-07-08T05:56:40;13.13;;;7.78;;
19554;SDS011;9924;50.828;6.440;2023-07-08T05:59:06;12.52;;;8.07;;
19554;SDS011;9924;50.828;6.440;2023-07-08T06:01:32;14.05;;;7.80;;
19554;SDS011;9924;50.828;6.440;2023-07-08T06:03:58;13.98;;;7.35;;
19554;SDS011;9924;50.828;6.440;2023-07-08T06:06:24;17.75;;;7.82;;
19554;SDS011;9924;50.828;6.440;2023-07-08T06:08:51;13.18;;;7.00;;
19554;SDS011;9924;50.828;6.440;2023-07-08T06:11:17;11.57;;;6.88;;
19554;SDS011;9924;50.828;6.440;2023-07-08T06:13:43;12.65;;;7.38;;
19554;SDS011;9924;50.828;6.440;2023-07-08T06:16:09;14.13;;;7.75;;
19554;SDS011;9924;50.828;6.440;2023-07-08T06:18:35;12.90;;;7.13;;
19554;SDS011;9924;50.828;6.440;2023-07-08T06:21:01;11.27;;;6.93;;
19554;SDS011;9924;50.828;6.440;2023-07-08T06:23:27;13.57;;;7.03;;
19554;SDS011;9924;50.828;6.440;2023-07-08T06:25:53;13.55;;;7.55;;
19554;SDS011;9924;50.828;6.440;2023-07-08T06:28:20;15.88;;;7.57;;
19554;SDS011;9924;50.828;6.440;2023-07-08T06:30:46;10.60;;;6.57;;
19554;SDS011;9924;50.828;6.440;2023-07-08T06:33:12;11.13;;;6.43;;
19554;SDS011;9924;50.828;6.440;2023-07-08T06:35:39;12.80;;;6.65;;
19554;SDS011;9924;50.828;6.440;2023-07-08T06:38:06;9.43;;;6.03;;
19554;SDS011;9924;50.828;6.440;2023-07-08T06:40:32;13.90;;;7.15;;
19554;SDS011;9924;50.828;6.440;2023-07-08T06:42:58;12.48;;;7.00;;
19554;SDS011;9924;50.828;6.440;2023-07-08T06:45:24;15.20;;;7.30;;
19554;SDS011;9924;50.828;6.440;2023-07-08T06:47:50;12.70;;;7.18;;
19554;SDS011;9924;50.828;6.440;2023-07-08T06:50:16;10.88;;;6.20;;
19554;SDS011;9924;50.828;6.440;2023-07-08T06:52:42;11.85;;;6.90;;
19554;SDS011;9924;50.828;6.440;2023-07-08T06:55:08;12.57;;;7.28;;
19554;SDS011;9924;50.828;6.440;2023-07-08T06:57:36;10.73;;;5.85;;
19554;SDS011;9924;50.828;6.440;2023-07-08T07:00:08;9.88;;;6.40;;
19554;SDS011;9924;50.828;6.440;2023-07-08T07:02:35;14.00;;;6.68;;
19554;SDS011;9924;50.828;6.440;2023-07-08T07:05:02;13.75;;;6.22;;
19554;SDS011;9924;50.828;6.440;2023-07-08T07:07:29;11.07;;;6.68;;
19554;SDS011;9924;50.828;6.440;2023-07-08T07:09:55;12.38;;;6.68;;
19554;SDS011;9924;50.828;6.440;2023-07-08T07:12:21;13.00;;;6.20;;
19554;SDS011;9924;50.828;6.440;2023-07-08T07:14:48;13.63;;;6.90;;
19554;SDS011;9924;50.828;6.440;2023-07-08T07:17:17;11.93;;;6.57;;
19554;SDS011;9924;50.828;6.440;2023-07-08T07:19:44;9.95;;;6.43;;
19554;SDS011;9924;50.828;6.440;2023-07-08T07:22:10;10.82;;;6.97;;
19554;SDS011;9924;50.828;6.440;2023-07-08T07:24:36;10.80;;;6.68;;
19554;SDS011;9924;50.828;6.440;2023-07-08T07:27:02;10.00;;;6.22;;
19554;SDS011;9924;50.828;6.440;2023-07-08T07:29:27;11.93;;;7.00;;
19554;SDS011;9924;50.828;6.440;2023-07-08T07:32:02;13.40;;;6.53;;
19554;SDS011;9924;50.828;6.440;2023-07-08T07:34:28;10.98;;;6.45;;
19554;SDS011;9924;50.828;6.440;2023-07-08T07:36:54;11.45;;;6.65;;
19554;SDS011;9924;50.828;6.440;2023-07-08T07:39:20;10.43;;;6.53;;
19554;SDS011;9924;50.828;6.440;2023-07-08T07:41:45;11.05;;;7.00;;
19554;SDS011;9924;50.828;6.440;2023-07-08T07:44:11;17.83;;;6.75;;
19554;SDS011;9924;50.828;6.440;2023-07-08T07:46:37;9.98;;;6.65;;
19554;SDS011;9924;50.828;6.440;2023-07-08T07:49:02;12.90;;;5.95;;
19554;SDS011;9924;50.828;6.440;2023-07-08T07:51:28;13.02;;;6.85;;
19554;SDS011;9924;50.828;6.440;2023-07-08T07:53:54;12.35;;;6.78;;
19554;SDS011;9924;50.828;6.440;2023-07-08T07:56:20;13.48;;;6.80;;
19554;SDS011;9924;50.828;6.440;2023-07-08T07:58:46;11.98;;;6.68;;
19554;SDS011;9924;50.828;6.440;2023-07-08T08:01:12;12.35;;;6.55;;
19554;SDS011;9924;50.828;6.440;2023-07-08T08:03:38;10.10;;;6.47;;
19554;SDS011;9924;50.828;6.440;2023-07-08T08:06:04;9.20;;;5.60;;
19554;SDS011;9924;50.828;6.440;2023-07-08T08:08:30;10.00;;;6.72;;
19554;SDS011;9924;50.828;6.440;2023-07-08T08:10:55;10.32;;;6.80;;
19554;SDS011;9924;50.828;6.440;2023-07-08T08:13:22;12.60;;;7.30;;
19554;SDS011;9924;50.828;6.440;2023-07-08T08:15:47;14.98;;;7.32;;
19554;SDS011;9924;50.828;6.440;2023-07-08T08:18:13;12.43;;;6.95;;
19554;SDS011;9924;50.828;6.440;2023-07-08T08:20:39;10.05;;;6.72;;
19554;SDS011;9924;50.828;6.440;2023-07-08T08:23:06;10.32;;;6.22;;
19554;SDS011;9924;50.828;6.440;2023-07-08T08:25:31;10.18;;;6.47;;
19554;SDS011;9924;50.828;6.440;2023-07-08T08:27:57;8.80;;;6.40;;
19554;SDS011;9924;50.828;6.440;2023-07-08T08:30:23;9.93;;;6.57;;
19554;SDS011;9924;50.828;6.440;2023-07-08T08:32:49;9.95;;;6.00;;
19554;SDS011;9924;50.828;6.440;2023-07-08T08:35:15;9.70;;;6.05;;
19554;SDS011;9924;50.828;6.440;2023-07-08T08:37:40;8.75;;;5.93;;
19554;SDS011;9924;50.828;6.440;2023-07-08T08:40:07;7.97;;;5.38;;
19554;SDS011;9924;50.828;6.440;2023-07-08T08:42:41;10.20;;;6.30;;
19554;SDS011;9924;50.828;6.440;2023-07-08T08:45:13;8.93;;;6.15;;
19554;SDS011;9924;50.828;6.440;2023-07-08T08:47:44;10.90;;;6.47;;
19554;SDS011;9924;50.828;6.440;2023-07-08T08:50:26;10.13;;;6.00;;
19554;SDS011;9924;50.828;6.440;2023-07-08T08:52:53;10.43;;;6.60;;
19554;SDS011;9924;50.828;6.440;2023-07-08T08:55:20;11.23;;;6.35;;
19554;SDS011;9924;50.828;6.440;2023-07-08T09:00:45;11.13;;;6.70;;
19554;SDS011;9924;50.828;6.440;2023-07-08T09:08:44;11.57;;;6.00;;
19554;SDS011;9924;50.828;6.440;2023-07-08T09:14:19;8.68;;;5.60;;
19554;SDS011;9924;50.828;6.440;2023-07-08T09:19:48;12.13;;;6.00;;
19554;SDS011;9924;50.828;6.440;2023-07-08T09:22:38;7.75;;;5.32;;
19554;SDS011;9924;50.828;6.440;2023-07-08T09:25:17;11.52;;;5.78;;
19554;SDS011;9924;50.828;6.440;2023-07-08T09:27:51;9.68;;;5.45;;
19554;SDS011;9924;50.828;6.440;2023-07-08T09:30:18;7.45;;;5.28;;
19554;SDS011;9924;50.828;6.440;2023-07-08T09:32:46;10.00;;;5.65;;
19554;SDS011;9924;50.828;6.440;2023-07-08T09:35:22;7.43;;;4.80;;
19554;SDS011;9924;50.828;6.440;2023-07-08T09:37:50;6.43;;;4.65;;
19554;SDS011;9924;50.828;6.440;2023-07-08T09:43:04;9.90;;;5.10;;
19554;SDS011;9924;50.828;6.440;2023-07-08T09:45:44;9.35;;;5.13;;
19554;SDS011;9924;50.828;6.440;2023-07-08T09:48:16;9.80;;;5.18;;
19554;SDS011;9924;50.828;6.440;2023-07-08T09:50:47;9.35;;;4.90;;
19554;SDS011;9924;50.828;6.440;2023-07-08T09:53:14;8.45;;;5.07;;
19554;SDS011;9924;50.828;6.440;2023-07-08T09:55:40;8.45;;;4.90;;
19554;SDS011;9924;50.828;6.440;2023-07-08T09:58:08;8.77;;;5.60;;
19554;SDS011;9924;50.828;6.440;2023-07-08T10:00:50;8.60;;;5.35;;
19554;SDS011;9924;50.828;6.440;2023-07-08T10:03:20;6.20;;;4.40;;
19554;SDS011;9924;50.828;6.440;2023-07-08T10:05:49;6.90;;;4.80;;
19554;SDS011;9924;50.828;6.440;2023-07-08T10:10:44;9.73;;;5.00;;
19554;SDS011;9924;50.828;6.440;2023-07-08T10:15:49;6.07;;;4.32;;
19554;SDS011;9924;50.828;6.440;2023-07-08T10:18:23;12.50;;;4.65;;
19554;SDS011;9924;50.828;6.440;2023-07-08T10:29:13;7.95;;;4.60;;
19554;SDS011;9924;50.828;6.440;2023-07-08T10:31:53;8.95;;;4.72;;
19554;SDS011;9924;50.828;6.440;2023-07-08T10:34:33;9.45;;;4.50;;
19554;SDS011;9924;50.828;6.440;2023-07-08T10:42:59;8.73;;;4.88;;
19554;SDS011;9924;50.828;6.440;2023-07-08T10:46:01;8.77;;;4.75;;
19554;SDS011;9924;50.828;6.440;2023-07-08T10:48:55;8.90;;;4.50;;
19554;SDS011;9924;50.828;6.440;2023-07-08T10:54:27;7.90;;;4.78;;
19554;SDS011;9924;50.828;6.440;2023-07-08T11:08:24;8.13;;;4.32;;
19554;SDS011;9924;50.828;6.440;2023-07-08T11:11:06;8.98;;;4.13;;
19554;SDS011;9924;50.828;6.440;2023-07-08T11:13:52;7.38;;;4.47;;
19554;SDS011;9924;50.828;6.440;2023-07-08T11:16:25;7.40;;;4.50;;
19554;SDS011;9924;50.828;6.440;2023-07-08T11:19:04;9.52;;;4.82;;
19554;SDS011;9924;50.828;6.440;2023-07-08T11:21:45;9.30;;;4.32;;
19554;SDS011;9924;50.828;6.440;2023-07-08T11:24:21;8.45;;;4.90;;
19554;SDS011;9924;50.828;6.440;2023-07-08T11:27:01;10.93;;;4.03;;
19554;SDS011;9924;50.828;6.440;2023-07-08T11:30:30;7.43;;;4.60;;
19554;SDS011;9924;50.828;6.440;2023-07-08T11:32:32;8.55;;;4.63;;
19554;SDS011;9924;50.828;6.440;2023-07-08T11:35:00;10.10;;;4.55;;
19554;SDS011;9924;50.828;6.440;2023-07-08T11:37:28;6.97;;;4.68;;
19554;SDS011;9924;50.828;6.440;2023-07-08T11:42:39;7.65;;;4.55;;
19554;SDS011;9924;50.828;6.440;2023-07-08T11:47:52;8.57;;;4.30;;
19554;SDS011;9924;50.828;6.440;2023-07-08T11:50:32;7.03;;;4.68;;
19554;SDS011;9924;50.828;6.440;2023-07-08T11:53:06;8.05;;;4.47;;
19554;SDS011;9924;50.828;6.440;2023-07-08T11:58:27;7.45;;;4.47;;
19554;SDS011;9924;50.828;6.440;2023-07-08T12:01:05;7.55;;;4.35;;
19554;SDS011;9924;50.828;6.440;2023-07-08T12:03:49;6.60;;;4.82;;
19554;SDS011;9924;50.828;6.440;2023-07-08T12:09:00;12.65;;;4.43;;
19554;SDS011;9924;50.828;6.440;2023-07-08T12:11:47;6.55;;;4.40;;
19554;SDS011;9924;50.828;6.440;2023-07-08T12:14:17;6.38;;;4.20;;
19554;SDS011;9924;50.828;6.440;2023-07-08T12:16:43;7.47;;;4.13;;
19554;SDS011;9924;50.828;6.440;2023-07-08T12:19:09;8.98;;;4.03;;
19554;SDS011;9924;50.828;6.440;2023-07-08T12:21:41;5.13;;;4.18;;
19554;SDS011;9924;50.828;6.440;2023-07-08T12:24:07;11.00;;;4.10;;
19554;SDS011;9924;50.828;6.440;2023-07-08T12:26:37;8.57;;;4.78;;
19554;SDS011;9924;50.828;6.440;2023-07-08T12:29:04;7.60;;;4.50;;
19554;SDS011;9924;50.828;6.440;2023-07-08T12:31:30;8.05;;;5.03;;
19554;SDS011;9924;50.828;6.440;2023-07-08T12:33:57;7.43;;;4.47;;
19554;SDS011;9924;50.828;6.440;2023-07-08T12:36:25;8.15;;;4.22;;
19554;SDS011;9924;50.828;6.440;2023-07-08T12:38:57;8.73;;;5.05;;
19554;SDS011;9924;50.828;6.440;2023-07-08T12:41:25;8.18;;;3.97;;
19554;SDS011;9924;50.828;6.440;2023-07-08T12:43:57;9.35;;;4.38;;
19554;SDS011;9924;50.828;6.440;2023-07-08T12:46:24;8.95;;;4.50;;
19554;SDS011;9924;50.828;6.440;2023-07-08T12:48:51;6.70;;;4.53;;
19554;SDS011;9924;50.828;6.440;2023-07-08T12:51:17;8.35;;;4.50;;
19554;SDS011;9924;50.828;6.440;2023-07-08T12:53:46;8.65;;;5.05;;
19554;SDS011;9924;50.828;6.440;2023-07-08T12:56:13;6.30;;;4.45;;
19554;SDS011;9924;50.828;6.440;2023-07-08T12:58:43;10.48;;;5.03;;
19554;SDS011;9924;50.828;6.440;2023-07-08T13:01:30;7.43;;;4.82;;
19554;SDS011;9924;50.828;6.440;2023-07-08T13:04:01;9.68;;;4.82;;
19554;SDS011;9924;50.828;6.440;2023-07-08T13:06:30;7.45;;;4.75;;
19554;SDS011;9924;50.828;6.440;2023-07-08T13:09:04;7.88;;;4.43;;
19554;SDS011;9924;50.828;6.440;2023-07-08T13:11:34;9.10;;;4.90;;
19554;SDS011;9924;50.828;6.440;2023-07-08T13:14:01;9.63;;;5.07;;
19554;SDS011;9924;50.828;6.440;2023-07-08T13:16:32;7.82;;;4.82;;
19554;SDS011;9924;50.828;6.440;2023-07-08T13:19:00;7.95;;;4.82;;
19554;SDS011;9924;50.828;6.440;2023-07-08T13:21:26;8.68;;;4.82;;
19554;SDS011;9924;50.828;6.440;2023-07-08T13:23:56;11.45;;;5.15;;
19554;SDS011;9924;50.828;6.440;2023-07-08T13:26:23;7.47;;;4.93;;
19554;SDS011;9924;50.828;6.440;2023-07-08T13:28:58;6.63;;;4.90;;
19554;SDS011;9924;50.828;6.440;2023-07-08T13:31:31;8.57;;;5.20;;
19554;SDS011;9924;50.828;6.440;2023-07-08T13:34:02;8.85;;;5.13;;
19554;SDS011;9924;50.828;6.440;2023-07-08T13:36:37;7.82;;;4.90;;
19554;SDS011;9924;50.828;6.440;2023-07-08T13:39:07;12.95;;;5.28;;
19554;SDS011;9924;50.828;6.440;2023-07-08T13:41:34;8.77;;;4.95;;
19554;SDS011;9924;50.828;6.440;2023-07-08T13:44:04;6.70;;;5.07;;
19554;SDS011;9924;50.828;6.440;2023-07-08T13:46:45;8.73;;;4.80;;
19554;SDS011;9924;50.828;6.440;2023-07-08T13:49:22;8.85;;;5.20;;
19554;SDS011;9924;50.828;6.440;2023-07-08T13:52:03;8.85;;;5.00;;
19554;SDS011;9924;50.828;6.440;2023-07-08T13:54:37;10.68;;;4.75;;
19554;SDS011;9924;50.828;6.440;2023-07-08T13:57:10;11.18;;;4.20;;
19554;SDS011;9924;50.828;6.440;2023-07-08T13:59:37;9.40;;;4.47;;
19554;SDS011;9924;50.828;6.440;2023-07-08T14:02:08;11.02;;;4.93;;
19554;SDS011;9924;50.828;6.440;2023-07-08T14:04:58;8.82;;;5.07;;
19554;SDS011;9924;50.828;6.440;2023-07-08T14:07:29;9.52;;;4.68;;
19554;SDS011;9924;50.828;6.440;2023-07-08T14:09:56;7.88;;;4.40;;
19554;SDS011;9924;50.828;6.440;2023-07-08T14:12:22;8.68;;;5.07;;
19554;SDS011;9924;50.828;6.440;2023-07-08T14:14:48;10.23;;;4.97;;
19554;SDS011;9924;50.828;6.440;2023-07-08T14:17:15;15.85;;;5.05;;
19554;SDS011;9924;50.828;6.440;2023-07-08T14:19:45;8.82;;;5.18;;
19554;SDS011;9924;50.828;6.440;2023-07-08T14:24:42;8.23;;;4.57;;
19554;SDS011;9924;50.828;6.440;2023-07-08T14:27:08;6.45;;;4.22;;
19554;SDS011;9924;50.828;6.440;2023-07-08T14:29:37;7.78;;;4.75;;
19554;SDS011;9924;50.828;6.440;2023-07-08T14:32:04;7.32;;;4.82;;
19554;SDS011;9924;50.828;6.440;2023-07-08T14:34:36;8.80;;;4.68;;
19554;SDS011;9924;50.828;6.440;2023-07-08T14:37:01;8.07;;;4.65;;
19554;SDS011;9924;50.828;6.440;2023-07-08T14:39:28;7.32;;;4.85;;
19554;SDS011;9924;50.828;6.440;2023-07-08T14:41:54;6.43;;;4.63;;
19554;SDS011;9924;50.828;6.440;2023-07-08T14:44:21;9.05;;;5.00;;
19554;SDS011;9924;50.828;6.440;2023-07-08T14:46:47;9.50;;;5.38;;
19554;SDS011;9924;50.828;6.440;2023-07-08T14:49:15;8.13;;;4.90;;
19554;SDS011;9924;50.828;6.440;2023-07-08T14:51:43;11.80;;;6.03;;
19554;SDS011;9924;50.828;6.440;2023-07-08T14:54:09;9.57;;;5.22;;
19554;SDS011;9924;50.828;6.440;2023-07-08T14:56:35;8.77;;;5.22;;
19554;SDS011;9924;50.828;6.440;2023-07-08T14:59:01;7.78;;;4.72;;
19554;SDS011;9924;50.828;6.440;2023-07-08T15:01:27;7.50;;;4.97;;
19554;SDS011;9924;50.828;6.440;2023-07-08T15:03:57;9.13;;;5.57;;
19554;SDS011;9924;50.828;6.440;2023-07-08T15:06:23;9.13;;;4.75;;
19554;SDS011;9924;50.828;6.440;2023-07-08T15:08:50;8.02;;;4.93;;
19554;SDS011;9924;50.828;6.440;2023-07-08T15:11:16;10.30;;;5.35;;
19554;SDS011;9924;50.828;6.440;2023-07-08T15:13:43;9.45;;;5.65;;
19554;SDS011;9924;50.828;6.440;2023-07-08T15:16:14;12.10;;;5.30;;
19554;SDS011;9924;50.828;6.440;2023-07-08T15:18:41;15.38;;;5.30;;
19554;SDS011;9924;50.828;6.440;2023-07-08T15:21:14;16.17;;;5.68;;
19554;SDS011;9924;50.828;6.440;2023-07-08T15:23:40;13.98;;;5.50;;
19554;SDS011;9924;50.828;6.440;2023-07-08T15:26:10;15.23;;;5.00;;
19554;SDS011;9924;50.828;6.440;2023-07-08T15:28:46;13.05;;;5.25;;
19554;SDS011;9924;50.828;6.440;2023-07-08T15:31:17;9.95;;;4.70;;
19554;SDS011;9924;50.828;6.440;2023-07-08T15:33:45;15.38;;;5.85;;
19554;SDS011;9924;50.828;6.440;2023-07-08T15:36:11;11.52;;;5.35;;
19554;SDS011;9924;50.828;6.440;2023-07-08T15:38:41;16.65;;;6.03;;
19554;SDS011;9924;50.828;6.440;2023-07-08T15:41:12;9.82;;;5.30;;
19554;SDS011;9924;50.828;6.440;2023-07-08T15:43:46;13.45;;;5.15;;
19554;SDS011;9924;50.828;6.440;2023-07-08T15:46:13;12.18;;;5.45;;
19554;SDS011;9924;50.828;6.440;2023-07-08T15:48:40;11.65;;;5.15;;
19554;SDS011;9924;50.828;6.440;2023-07-08T15:51:07;9.73;;;5.20;;
19554;SDS011;9924;50.828;6.440;2023-07-08T15:53:36;11.23;;;5.43;;
19554;SDS011;9924;50.828;6.440;2023-07-08T15:56:02;10.65;;;5.25;;
19554;SDS011;9924;50.828;6.440;2023-07-08T15:58:29;10.27;;;5.32;;
19554;SDS011;9924;50.828;6.440;2023-07-08T16:00:58;10.32;;;5.28;;
19554;SDS011;9924;50.828;6.440;2023-07-08T16:03:27;15.52;;;5.68;;
19554;SDS011;9924;50.828;6.440;2023-07-08T16:05:54;10.40;;;5.00;;
19554;SDS011;9924;50.828;6.440;2023-07-08T16:08:21;9.93;;;4.88;;
19554;SDS011;9924;50.828;6.440;2023-07-08T16:10:49;7.50;;;4.15;;
19554;SDS011;9924;50.828;6.440;2023-07-08T16:13:19;7.63;;;4.40;;
19554;SDS011;9924;50.828;6.440;2023-07-08T16:15:48;11.40;;;4.60;;
19554;SDS011;9924;50.828;6.440;2023-07-08T16:18:14;12.93;;;4.20;;
19554;SDS011;9924;50.828;6.440;2023-07-08T16:20:40;7.80;;;3.88;;